Alamo, North Dakota
Current Conditions -  °F | °C
As of 8:15 AM on Tuesday 21 Oct 2014 (Local Time) from KD50 Reporting Station
Clear Clear  
Wind Chill: 41°   Ceiling: Unl
Heat Index: 45°   Visibility: 10mi
Dew Point: 37°   Wind: 6mph
Humidity: 76%   Direction: 180°S
Pressure: 29.75"   Gusts: NA
Location:  48.58°N, 103.47°W
Report Text: KD50 211315Z AUTO 18005KT 10SM CLR 07/03 A2975 RMK AO2
Loading
Personal Weather Stations






























Interactive Weather Map
Tropical Storm Tracking
New forecast layout! Learn more

10-Day Weather Forecast

Advertisements
Track Severe Weather on mobile